Terminal Aerodrome Forecast
Issued by NWS

Home | Current Version | Previous Version | Graphics & Text | Print | Product List | Glossary On
Versions: 1 2 3 4 5 6 7 8 9 10 11 12 13 14 15 16
000
FTUS43 KIWX 231130
TAFSBN
TAF
KSBN 231130Z 2312/2412 20007KT P6SM BKN080
      TEMPO 2312/2316 -RA BKN060
     FM231800 21007KT P6SM VCSH BKN060
     FM232200 08005KT P6SM OVC070
     FM240500 06004KT P6SM VCSH OVC035=

USA.gov is the U.S. government's official web portal to all federal, state and local government web resources and services.